createdAt,value
2022-09-26T00:01:34.587Z,3.35
2022-09-26T00:04:07.970Z,3.07
2022-09-26T00:06:35.557Z,2.88
2022-09-26T00:09:03.141Z,2.53
2022-09-26T00:11:33.052Z,2.78
2022-09-26T00:14:04.714Z,3.03
2022-09-26T00:16:33.040Z,2.93
2022-09-26T00:19:04.203Z,2.83
2022-09-26T00:21:32.316Z,3.10
2022-09-26T00:24:01.644Z,2.45
2022-09-26T00:26:31.128Z,3.20
2022-09-26T00:29:01.164Z,3.00
2022-09-26T00:31:32.061Z,3.13
2022-09-26T00:34:00.625Z,2.90
2022-09-26T00:36:37.369Z,2.70
2022-09-26T00:39:08.484Z,3.17
2022-09-26T00:41:36.833Z,2.53
2022-09-26T00:44:24.375Z,2.78
2022-09-26T00:46:52.523Z,3.22
2022-09-26T00:49:34.652Z,2.85
2022-09-26T00:52:26.449Z,2.35
2022-09-26T00:54:56.983Z,2.80
2022-09-26T00:57:37.873Z,2.63
2022-09-26T01:00:09.422Z,2.85
2022-09-26T01:02:37.713Z,2.85
2022-09-26T01:05:06.916Z,2.85
2022-09-26T01:07:35.425Z,3.53
2022-09-26T01:10:05.127Z,3.05
2022-09-26T01:12:33.199Z,3.38
2022-09-26T01:15:01.503Z,2.95
2022-09-26T01:17:29.077Z,3.00
2022-09-26T01:20:18.074Z,3.40
2022-09-26T01:23:19.420Z,3.47
2022-09-26T01:25:59.249Z,2.72
2022-09-26T01:28:49.015Z,2.53
2022-09-26T01:31:32.510Z,2.25
2022-09-26T01:34:24.249Z,2.83
2022-09-26T01:37:23.994Z,2.35
2022-09-26T01:40:22.240Z,2.38
2022-09-26T01:42:54.993Z,2.92
2022-09-26T01:45:29.096Z,2.45
2022-09-26T01:48:31.005Z,2.53
2022-09-26T01:51:33.299Z,2.78
2022-09-26T01:54:12.746Z,2.92
2022-09-26T01:56:42.048Z,2.53
2022-09-26T01:59:32.064Z,2.70
2022-09-26T02:02:10.946Z,2.63
2022-09-26T02:04:44.646Z,2.17
2022-09-26T02:07:16.936Z,2.20
2022-09-26T02:09:56.932Z,1.98
2022-09-26T02:12:32.922Z,2.50
2022-09-26T02:15:06.495Z,3.20
2022-09-26T02:17:40.245Z,2.45
2022-09-26T02:20:35.172Z,2.15
2022-09-26T02:23:04.363Z,2.03
2022-09-26T02:25:33.165Z,1.83
2022-09-26T02:28:01.202Z,2.33
2022-09-26T02:30:29.398Z,2.22
2022-09-26T02:32:57.096Z,1.45
2022-09-26T02:35:44.484Z,1.77
2022-09-26T02:38:13.532Z,1.60
2022-09-26T02:41:00.354Z,1.33
2022-09-26T02:44:06.263Z,1.30
2022-09-26T02:47:02.541Z,1.25
2022-09-26T02:49:49.873Z,1.50
2022-09-26T02:52:55.875Z,1.40
2022-09-26T02:56:03.491Z,1.30
2022-09-26T02:58:39.159Z,1.00
2022-09-26T03:01:19.778Z,0.80
2022-09-26T03:04:18.691Z,0.73
2022-09-26T03:06:51.492Z,1.42
2022-09-26T03:09:23.072Z,0.70
2022-09-26T03:11:54.266Z,0.93
2022-09-26T03:14:21.927Z,0.60
2022-09-26T03:16:52.224Z,0.65
2022-09-26T03:19:30.277Z,0.70
2022-09-26T03:22:00.080Z,0.60
2022-09-26T03:24:28.412Z,0.52
2022-09-26T03:27:00.683Z,0.70
2022-09-26T03:29:28.430Z,1.08
2022-09-26T03:31:56.320Z,0.70
2022-09-26T03:34:23.983Z,0.70
2022-09-26T03:36:54.402Z,0.75
2022-09-26T03:39:23.128Z,0.73
2022-09-26T03:41:59.326Z,1.00
2022-09-26T03:44:29.032Z,0.60
2022-09-26T03:47:18.217Z,0.97
2022-09-26T03:49:49.779Z,0.50
2022-09-26T03:52:17.242Z,0.50
2022-09-26T03:54:45.759Z,1.00
2022-09-26T03:57:17.087Z,0.47
2022-09-26T03:59:52.353Z,1.10
2022-09-26T04:02:21.114Z,0.70
2022-09-26T04:04:55.774Z,0.70
2022-09-26T04:07:23.316Z,0.80
2022-09-26T04:09:50.900Z,0.50
2022-09-26T04:12:20.290Z,0.50
2022-09-26T04:14:47.873Z,1.02
2022-09-26T04:17:15.381Z,0.88
2022-09-26T04:19:44.918Z,0.93
2022-09-26T04:22:12.769Z,0.80
2022-09-26T04:24:41.736Z,0.77
2022-09-26T04:27:09.361Z,1.10
2022-09-26T04:29:38.130Z,0.95
2022-09-26T04:32:12.526Z,0.80
2022-09-26T04:34:52.630Z,0.95
2022-09-26T04:37:21.126Z,1.00
2022-09-26T04:39:48.725Z,0.93
2022-09-26T04:42:16.864Z,1.20
2022-09-26T04:44:44.489Z,1.33
2022-09-26T04:47:12.044Z,0.47
2022-09-26T04:49:58.094Z,1.00
2022-09-26T04:52:26.661Z,0.73
2022-09-26T04:54:54.426Z,0.95
2022-09-26T04:57:22.020Z,0.80
2022-09-26T04:59:49.517Z,0.77
2022-09-26T05:02:18.127Z,1.03
2022-09-26T05:04:48.241Z,1.20
2022-09-26T05:07:16.407Z,1.10
2022-09-26T05:09:44.877Z,1.05
2022-09-26T05:12:15.512Z,0.98
2022-09-26T05:14:46.127Z,1.20
2022-09-26T05:17:15.549Z,0.65
2022-09-26T05:19:45.908Z,0.95
2022-09-26T05:22:29.893Z,0.60
2022-09-26T05:25:15.989Z,0.85
2022-09-26T05:27:43.871Z,0.80
2022-09-26T05:30:14.659Z,0.88
2022-09-26T05:32:46.130Z,0.88
2022-09-26T05:35:14.174Z,0.70
2022-09-26T05:37:42.816Z,0.60
2022-09-26T05:40:30.329Z,0.73
2022-09-26T05:43:02.656Z,1.00
2022-09-26T05:45:31.615Z,0.82
2022-09-26T05:48:01.997Z,0.77
2022-09-26T05:50:29.785Z,0.93
2022-09-26T05:52:58.789Z,1.10
2022-09-26T05:55:27.584Z,0.52
2022-09-26T05:57:58.730Z,0.73
2022-09-26T06:00:35.774Z,1.20
2022-09-26T06:03:03.834Z,1.15
2022-09-26T06:05:52.053Z,1.00
2022-09-26T06:08:25.605Z,0.85
2022-09-26T06:11:16.405Z,1.10
2022-09-26T06:13:48.437Z,0.82
2022-09-26T06:16:19.165Z,1.00
2022-09-26T06:18:50.684Z,0.80
2022-09-26T06:21:20.789Z,0.63
2022-09-26T06:23:52.488Z,0.95
2022-09-26T06:26:23.694Z,0.85
2022-09-26T06:29:00.407Z,0.65
2022-09-26T06:31:30.347Z,1.00
2022-09-26T06:34:09.940Z,0.88
2022-09-26T06:36:49.695Z,0.85
2022-09-26T06:39:17.944Z,0.75
2022-09-26T06:41:47.727Z,0.65
2022-09-26T06:44:35.589Z,0.60
2022-09-26T06:47:15.869Z,0.93
2022-09-26T06:49:46.970Z,1.13
2022-09-26T06:52:26.668Z,0.90
2022-09-26T06:54:57.215Z,0.85
2022-09-26T06:57:24.795Z,1.00
2022-09-26T06:59:52.506Z,0.65
2022-09-26T07:02:51.562Z,0.88
2022-09-26T07:05:37.882Z,0.68
2022-09-26T07:08:05.577Z,0.60
2022-09-26T07:10:35.270Z,0.50
2022-09-26T07:13:09.524Z,0.75
2022-09-26T07:15:37.595Z,0.80
2022-09-26T07:18:20.519Z,0.70
2022-09-26T07:21:23.479Z,0.80
2022-09-26T07:24:06.185Z,0.80
2022-09-26T07:26:33.877Z,1.00
2022-09-26T07:29:01.880Z,1.13
2022-09-26T07:31:31.149Z,1.02
2022-09-26T07:34:08.826Z,0.60
2022-09-26T07:36:40.863Z,0.70
2022-09-26T07:39:09.795Z,0.90
2022-09-26T07:41:37.371Z,0.70
2022-09-26T07:44:53.297Z,0.57
2022-09-26T07:47:10.790Z,0.70
2022-09-26T07:49:57.503Z,0.50
2022-09-26T07:52:58.326Z,0.82
2022-09-26T07:55:27.952Z,0.80
2022-09-26T07:58:01.086Z,0.65
2022-09-26T08:00:48.565Z,1.10
2022-09-26T08:03:44.543Z,0.83
2022-09-26T08:06:35.186Z,0.70
2022-09-26T08:09:03.175Z,0.80
2022-09-26T08:11:49.065Z,1.02
2022-09-26T08:14:55.046Z,0.43
2022-09-26T08:17:33.631Z,0.63
2022-09-26T08:20:02.059Z,0.57
2022-09-26T08:22:30.017Z,0.60
2022-09-26T08:25:00.257Z,0.85
2022-09-26T08:27:46.659Z,0.90
2022-09-26T08:30:15.246Z,0.93
2022-09-26T08:32:42.957Z,0.60
2022-09-26T08:35:14.559Z,0.57
2022-09-26T08:37:44.991Z,1.00
2022-09-26T08:40:54.988Z,0.47
2022-09-26T08:43:57.837Z,1.17
2022-09-26T08:47:11.682Z,0.88
2022-09-26T08:50:12.196Z,0.85
2022-09-26T08:53:00.854Z,0.63
2022-09-26T08:55:35.181Z,0.60
2022-09-26T08:58:08.961Z,0.50
2022-09-26T09:00:40.433Z,0.70
2022-09-26T09:03:31.767Z,0.70
2022-09-26T09:06:11.613Z,0.77
2022-09-26T09:08:50.136Z,0.70
2022-09-26T09:11:54.435Z,1.00
2022-09-26T09:14:24.867Z,0.90
2022-09-26T09:17:23.099Z,0.85
2022-09-26T09:20:27.901Z,0.70
2022-09-26T09:23:47.548Z,0.80
2022-09-26T09:29:32.364Z,0.73
2022-09-26T09:32:25.833Z,0.80
2022-09-26T09:35:16.611Z,0.90
2022-09-26T09:38:21.549Z,0.90
2022-09-26T09:41:14.314Z,1.10
2022-09-26T09:43:51.997Z,0.80
2022-09-26T09:46:29.539Z,0.98
2022-09-26T09:49:09.441Z,1.02
2022-09-26T09:52:26.506Z,0.90
2022-09-26T09:55:30.030Z,1.03
2022-09-26T09:58:51.938Z,1.10
2022-09-26T10:01:39.245Z,0.77
2022-09-26T10:04:44.585Z,0.90
2022-09-26T10:07:13.493Z,0.93
2022-09-26T10:09:55.909Z,1.00
2022-09-26T10:12:55.103Z,1.10
2022-09-26T10:16:32.269Z,0.82
2022-09-26T10:19:18.446Z,1.00
2022-09-26T10:21:57.157Z,0.90
2022-09-26T10:24:38.905Z,1.00
2022-09-26T10:27:41.216Z,1.10
2022-09-26T10:30:26.210Z,0.85
2022-09-26T10:33:03.584Z,1.05
2022-09-26T10:36:13.087Z,1.20
2022-09-26T10:39:22.725Z,0.93
2022-09-26T10:42:04.057Z,1.23
2022-09-26T10:44:36.675Z,1.15
2022-09-26T10:47:15.688Z,1.20
2022-09-26T10:50:18.506Z,1.33
2022-09-26T10:53:17.576Z,0.90
2022-09-26T10:55:58.814Z,1.20
2022-09-26T10:58:31.027Z,1.25
2022-09-26T11:01:07.417Z,1.15
2022-09-26T11:03:54.656Z,1.35
2022-09-26T11:06:35.513Z,1.30
2022-09-26T11:09:28.942Z,1.10
2022-09-26T11:12:36.522Z,1.23
2022-09-26T11:15:14.976Z,0.80
2022-09-26T11:17:51.013Z,1.20
2022-09-26T11:20:43.208Z,1.40
2022-09-26T11:23:34.959Z,0.90
2022-09-26T11:26:42.575Z,0.80
2022-09-26T11:29:39.141Z,0.70
2022-09-26T11:32:18.549Z,0.88
2022-09-26T11:35:32.432Z,0.80
2022-09-26T11:38:39.067Z,1.08
2022-09-26T11:41:18.690Z,1.02
2022-09-26T11:43:51.069Z,0.98
2022-09-26T11:47:13.179Z,0.90
2022-09-26T11:50:08.205Z,0.93
2022-09-26T11:53:17.847Z,0.88
2022-09-26T11:56:36.095Z,1.13
2022-09-26T12:00:06.860Z,0.85
2022-09-26T12:03:05.491Z,1.10
2022-09-26T12:06:04.572Z,0.93
2022-09-26T12:08:58.751Z,1.23
2022-09-26T12:11:57.538Z,1.00
2022-09-26T12:14:29.412Z,0.90
2022-09-26T12:17:20.518Z,1.02
2022-09-26T12:20:33.708Z,0.70
2022-09-26T12:23:10.110Z,0.80
2022-09-26T12:26:15.192Z,0.80
2022-09-26T12:29:24.422Z,0.80
2022-09-26T12:32:06.779Z,0.75
2022-09-26T12:35:16.563Z,0.67
2022-09-26T12:38:08.915Z,0.50
2022-09-26T12:40:58.073Z,0.68
2022-09-26T12:43:51.158Z,0.80
2022-09-26T12:46:54.150Z,0.65
2022-09-26T12:49:44.062Z,0.80
2022-09-26T12:52:26.583Z,0.60
2022-09-26T12:55:17.722Z,0.70
2022-09-26T12:58:22.061Z,0.80
2022-09-26T13:01:06.528Z,0.73
2022-09-26T13:03:43.426Z,0.67
2022-09-26T13:06:22.068Z,0.65
2022-09-26T13:09:05.966Z,0.50
2022-09-26T13:11:58.365Z,0.70
2022-09-26T13:14:36.793Z,0.73
2022-09-26T13:17:28.539Z,0.60
2022-09-26T13:20:22.489Z,0.63
2022-09-26T13:23:03.340Z,0.90
2022-09-26T13:25:52.625Z,0.65
2022-09-26T13:28:44.574Z,0.70
2022-09-26T13:31:41.557Z,0.73
2022-09-26T13:34:26.786Z,0.57
2022-09-26T13:36:59.331Z,0.93
2022-09-26T13:39:29.999Z,0.70
2022-09-26T13:42:19.235Z,0.60
2022-09-26T13:45:21.700Z,0.50
2022-09-26T13:48:08.703Z,0.50
2022-09-26T13:50:49.422Z,0.60
2022-09-26T13:53:30.518Z,0.70
2022-09-26T13:56:31.309Z,0.40
2022-09-26T13:59:29.492Z,0.53
2022-09-26T14:02:18.545Z,0.35
2022-09-26T14:04:48.296Z,0.80
2022-09-26T14:07:36.008Z,0.30
2022-09-26T14:10:08.907Z,0.30
2022-09-26T14:13:06.824Z,0.40
2022-09-26T14:15:50.108Z,0.40
2022-09-26T14:19:04.446Z,0.30
2022-09-26T14:21:47.473Z,0.20
2022-09-26T14:24:21.032Z,0.40
2022-09-26T14:27:09.851Z,0.40
2022-09-26T14:29:47.865Z,0.43
2022-09-26T14:32:23.381Z,0.40
2022-09-26T14:34:55.507Z,0.50
2022-09-26T14:37:26.694Z,0.25
2022-09-26T14:40:16.964Z,0.40
2022-09-26T14:42:44.836Z,0.43
2022-09-26T14:45:28.485Z,0.30
2022-09-26T14:48:09.616Z,0.20
2022-09-26T14:50:50.627Z,0.20
2022-09-26T14:54:03.754Z,0.10
2022-09-26T14:56:42.064Z,0.40
2022-09-26T14:59:16.393Z,0.50
2022-09-26T15:01:45.510Z,0.30
2022-09-26T15:04:25.619Z,0.32
2022-09-26T15:07:16.495Z,0.40
2022-09-26T15:10:19.145Z,0.50
2022-09-26T15:13:30.188Z,0.47
2022-09-26T15:16:26.340Z,0.30
2022-09-26T15:19:11.701Z,0.10
2022-09-26T15:21:42.504Z,0.30
2022-09-26T15:24:35.862Z,0.20
2022-09-26T15:27:19.953Z,0.50
2022-09-26T15:29:58.716Z,0.30
2022-09-26T15:32:29.853Z,0.10
2022-09-26T15:35:01.581Z,0.20
2022-09-26T15:40:33.634Z,0.10
2022-09-26T15:43:21.001Z,0.50
2022-09-26T15:45:58.681Z,0.20
2022-09-26T15:48:32.759Z,0.30
2022-09-26T15:51:29.745Z,0.20
2022-09-26T15:54:22.935Z,0.10
2022-09-26T15:57:01.129Z,0.30
2022-09-26T15:59:41.492Z,0.20
2022-09-26T16:02:39.316Z,0.30
2022-09-26T16:05:18.046Z,0.30
2022-09-26T16:07:53.597Z,2.78
2022-09-26T16:10:40.326Z,0.20
2022-09-26T16:13:30.126Z,0.57
2022-09-26T16:16:17.474Z,0.30
2022-09-26T16:18:58.323Z,0.35
2022-09-26T16:21:40.424Z,0.35
2022-09-26T16:24:37.176Z,0.40
2022-09-26T16:27:29.331Z,0.40
2022-09-26T16:30:06.417Z,0.60
2022-09-26T16:32:42.523Z,0.35
2022-09-26T16:35:34.537Z,0.50
2022-09-26T16:38:25.977Z,0.57
2022-09-26T16:40:56.672Z,0.63
2022-09-26T16:43:31.664Z,0.97
2022-09-26T16:46:13.603Z,0.70
2022-09-26T16:48:42.490Z,0.50
2022-09-26T16:51:25.351Z,0.47
2022-09-26T16:54:22.414Z,0.47
2022-09-26T16:56:51.691Z,0.40
2022-09-26T16:59:24.040Z,0.60
2022-09-26T17:01:54.648Z,0.63
2022-09-26T17:04:31.724Z,0.60
2022-09-26T17:07:00.872Z,0.70
2022-09-26T17:09:30.719Z,0.73
2022-09-26T17:12:08.478Z,0.80
2022-09-26T17:14:40.637Z,0.70
2022-09-26T17:17:16.285Z,0.57
2022-09-26T17:19:47.595Z,0.82
2022-09-26T17:22:17.673Z,0.77
2022-09-26T17:24:45.673Z,0.95
2022-09-26T17:27:16.600Z,1.15
2022-09-26T17:29:48.601Z,0.80
2022-09-26T17:32:31.159Z,0.65
2022-09-26T17:35:02.208Z,1.47
2022-09-26T17:37:29.759Z,0.93
2022-09-26T17:39:57.785Z,0.75
2022-09-26T17:42:25.950Z,0.90
2022-09-26T17:44:54.047Z,0.90
2022-09-26T17:47:23.532Z,0.67
2022-09-26T17:49:54.818Z,0.68
2022-09-26T17:52:29.309Z,1.15
2022-09-26T17:55:05.970Z,0.70
2022-09-26T17:57:38.305Z,1.13
2022-09-26T18:00:11.323Z,1.07
2022-09-26T18:02:49.251Z,0.85
2022-09-26T18:05:30.009Z,0.90
2022-09-26T18:08:04.401Z,2.15
2022-09-26T18:10:34.804Z,0.85
2022-09-26T18:13:12.946Z,1.00
2022-09-26T18:15:41.656Z,1.23
2022-09-26T18:18:14.585Z,1.90
2022-09-26T18:20:43.095Z,1.00
2022-09-26T18:23:16.434Z,1.42
2022-09-26T18:25:47.565Z,1.30
2022-09-26T18:28:20.538Z,1.08
2022-09-26T18:30:56.850Z,1.10
2022-09-26T18:33:27.942Z,0.90
2022-09-26T18:35:55.627Z,0.88
2022-09-26T18:38:23.114Z,1.50
2022-09-26T18:40:55.922Z,1.30
2022-09-26T18:43:28.079Z,1.05
2022-09-26T18:45:57.637Z,1.00
2022-09-26T18:48:30.022Z,0.85
2022-09-26T18:50:57.775Z,1.03
2022-09-26T18:53:29.523Z,1.27
2022-09-26T18:56:15.847Z,1.02
2022-09-26T18:58:44.061Z,1.20
2022-09-26T19:01:16.871Z,0.82
2022-09-26T19:03:51.074Z,1.43
2022-09-26T19:06:23.285Z,0.63
2022-09-26T19:08:57.565Z,1.13
2022-09-26T19:11:29.302Z,0.90
2022-09-26T19:13:58.656Z,1.20
2022-09-26T19:16:26.477Z,1.40
2022-09-26T19:18:54.059Z,1.05
2022-09-26T19:21:36.429Z,0.93
2022-09-26T19:24:20.339Z,0.70
2022-09-26T19:26:57.527Z,0.88
2022-09-26T19:29:37.318Z,1.00
2022-09-26T19:32:06.364Z,1.20
2022-09-26T19:34:34.089Z,1.48
2022-09-26T19:37:03.223Z,1.00
2022-09-26T19:39:31.850Z,0.80
2022-09-26T19:41:59.375Z,0.70
2022-09-26T19:44:26.930Z,0.98
2022-09-26T19:46:54.723Z,0.98
2022-09-26T19:49:23.715Z,1.05
2022-09-26T19:51:51.289Z,0.88
2022-09-26T19:54:19.652Z,0.73
2022-09-26T19:56:47.854Z,0.85
2022-09-26T19:59:17.298Z,1.10
2022-09-26T20:01:48.337Z,0.57
2022-09-26T20:04:19.244Z,0.70
2022-09-26T20:06:47.434Z,1.63
2022-09-26T20:09:19.810Z,1.88
2022-09-26T20:11:47.360Z,1.00
2022-09-26T20:14:23.948Z,1.00
2022-09-26T20:16:56.215Z,1.08
2022-09-26T20:19:34.498Z,0.93
2022-09-26T20:22:04.860Z,0.80
2022-09-26T20:24:33.650Z,0.80
2022-09-26T20:27:03.488Z,1.05
2022-09-26T20:29:51.454Z,0.75
2022-09-26T20:32:19.356Z,1.10
2022-09-26T20:34:47.008Z,0.70
2022-09-26T20:37:14.862Z,1.27
2022-09-26T20:39:42.814Z,0.80
2022-09-26T20:42:17.608Z,0.95
2022-09-26T20:44:48.670Z,1.00
2022-09-26T20:47:19.839Z,0.80
2022-09-26T20:49:55.244Z,1.20
2022-09-26T20:52:26.099Z,0.90
2022-09-26T20:54:55.339Z,0.70
2022-09-26T20:57:24.332Z,0.80
2022-09-26T20:59:52.226Z,0.70
2022-09-26T21:02:35.913Z,1.40
2022-09-26T21:05:10.924Z,0.60
2022-09-26T21:07:38.536Z,1.15
2022-09-26T21:10:21.865Z,0.57
2022-09-26T21:12:50.159Z,0.73
2022-09-26T21:15:18.411Z,0.63
2022-09-26T21:17:47.887Z,1.05
2022-09-26T21:20:20.764Z,0.63
2022-09-26T21:22:58.208Z,0.70
2022-09-26T21:25:30.140Z,0.60
2022-09-26T21:28:01.690Z,0.80
2022-09-26T21:30:30.754Z,0.63
2022-09-26T21:32:59.920Z,0.63
2022-09-26T21:35:31.486Z,0.63
2022-09-26T21:38:01.152Z,0.63
2022-09-26T21:40:32.496Z,0.70
2022-09-26T21:43:07.785Z,0.80
2022-09-26T21:45:35.593Z,0.80
2022-09-26T21:48:03.280Z,0.93
2022-09-26T21:50:31.169Z,0.90
2022-09-26T21:53:11.297Z,0.55
2022-09-26T21:55:43.226Z,0.77
2022-09-26T21:58:18.855Z,0.63
2022-09-26T22:00:46.471Z,0.80
2022-09-26T22:03:14.263Z,0.57
2022-09-26T22:05:42.574Z,0.60
2022-09-26T22:08:10.181Z,0.77
2022-09-26T22:10:37.724Z,0.90
2022-09-26T22:13:05.573Z,0.80
2022-09-26T22:15:33.102Z,0.45
2022-09-26T22:18:01.122Z,0.60
2022-09-26T22:20:28.658Z,0.65
2022-09-26T22:22:56.212Z,0.88
2022-09-26T22:25:23.718Z,0.70
2022-09-26T22:27:51.243Z,0.60
2022-09-26T22:30:18.787Z,0.73
2022-09-26T22:32:46.332Z,0.60
2022-09-26T22:35:14.385Z,1.00
2022-09-26T22:37:41.828Z,0.80
2022-09-26T22:40:09.528Z,0.60
2022-09-26T22:42:37.217Z,0.60
2022-09-26T22:45:05.109Z,0.52
2022-09-26T22:47:32.596Z,0.40
2022-09-26T22:50:00.313Z,0.70
2022-09-26T22:52:27.795Z,0.40
2022-09-26T22:54:55.377Z,0.65
2022-09-26T22:57:23.317Z,0.60
2022-09-26T22:59:50.846Z,0.35
2022-09-26T23:02:18.377Z,0.90
2022-09-26T23:04:48.799Z,0.60
2022-09-26T23:07:19.880Z,0.40
2022-09-26T23:09:47.448Z,0.80
2022-09-26T23:12:15.256Z,0.40
2022-09-26T23:14:42.925Z,0.50
2022-09-26T23:17:10.855Z,0.50
2022-09-26T23:19:38.498Z,0.60
2022-09-26T23:22:06.079Z,0.40
2022-09-26T23:24:33.627Z,0.30
2022-09-26T23:27:01.188Z,0.60
2022-09-26T23:29:28.825Z,0.47
2022-09-26T23:31:56.409Z,0.30
2022-09-26T23:34:23.967Z,0.50
2022-09-26T23:36:51.472Z,0.30
2022-09-26T23:39:19.111Z,0.30
2022-09-26T23:41:46.618Z,0.47
2022-09-26T23:44:14.305Z,0.75
2022-09-26T23:46:42.087Z,0.45
